createdAt,value
2023-02-05T00:02:10.517Z,3.60
2023-02-05T00:04:38.262Z,2.90
2023-02-05T00:07:06.234Z,3.15
2023-02-05T00:09:33.712Z,3.53
2023-02-05T00:12:01.047Z,2.88
2023-02-05T00:14:29.712Z,2.70
2023-02-05T00:16:56.938Z,2.63
2023-02-05T00:19:24.132Z,3.00
2023-02-05T00:21:51.385Z,2.28
2023-02-05T00:24:18.751Z,1.92
2023-02-05T00:26:45.884Z,1.88
2023-02-05T00:29:13.082Z,1.73
2023-02-05T00:31:40.326Z,1.92
2023-02-05T00:34:07.804Z,2.03
2023-02-05T00:36:34.961Z,2.17
2023-02-05T00:39:02.110Z,2.28
2023-02-05T00:41:29.277Z,2.10
2023-02-05T00:43:56.409Z,2.63
2023-02-05T00:46:23.566Z,2.78
2023-02-05T00:48:50.730Z,2.05
2023-02-05T00:51:18.014Z,1.83
2023-02-05T00:53:45.212Z,1.88
2023-02-05T00:56:12.420Z,1.70
2023-02-05T00:58:39.763Z,1.52
2023-02-05T01:01:07.079Z,1.60
2023-02-05T01:03:34.270Z,1.80
2023-02-05T01:06:03.517Z,1.80
2023-02-05T01:08:30.782Z,2.05
2023-02-05T01:10:58.025Z,2.10
2023-02-05T01:13:25.917Z,2.38
2023-02-05T01:15:53.113Z,2.22
2023-02-05T01:18:20.461Z,2.03
2023-02-05T01:20:47.662Z,2.10
2023-02-05T01:23:14.781Z,2.00
2023-02-05T01:25:41.893Z,2.45
2023-02-05T01:28:09.160Z,2.30
2023-02-05T01:30:36.778Z,2.30
2023-02-05T01:33:05.087Z,2.30
2023-02-05T01:35:32.970Z,2.38
2023-02-05T01:38:00.494Z,2.20
2023-02-05T01:40:27.840Z,2.38
2023-02-05T01:42:55.113Z,2.50
2023-02-05T01:45:22.202Z,2.63
2023-02-05T01:47:55.345Z,2.20
2023-02-05T01:50:32.859Z,1.90
2023-02-05T01:53:03.595Z,2.15
2023-02-05T01:55:32.016Z,2.10
2023-02-05T01:58:01.658Z,2.60
2023-02-05T02:00:29.001Z,2.20
2023-02-05T02:02:56.261Z,2.40
2023-02-05T02:05:23.404Z,2.38
2023-02-05T02:07:50.626Z,2.70
2023-02-05T02:10:19.511Z,2.60
2023-02-05T02:12:48.775Z,2.50
2023-02-05T02:15:24.025Z,2.40
2023-02-05T02:17:56.783Z,2.42
2023-02-05T02:20:31.236Z,2.53
2023-02-05T02:25:45.927Z,2.30
2023-02-05T02:28:54.902Z,2.13
2023-02-05T02:31:30.942Z,2.97
2023-02-05T02:34:03.616Z,2.63
2023-02-05T02:36:38.205Z,2.42
2023-02-05T02:39:37.468Z,2.50
2023-02-05T02:42:16.181Z,2.20
2023-02-05T02:44:58.100Z,2.60
2023-02-05T02:47:32.619Z,2.45
2023-02-05T02:52:36.342Z,2.40
2023-02-05T02:55:09.760Z,2.40
2023-02-05T02:57:40.673Z,2.92
2023-02-05T03:00:18.673Z,2.42
2023-02-05T03:02:48.773Z,2.55
2023-02-05T03:05:19.348Z,2.75
2023-02-05T03:07:57.018Z,2.50
2023-02-05T03:10:26.348Z,2.63
2023-02-05T03:12:56.139Z,2.63
2023-02-05T03:15:24.790Z,2.58
2023-02-05T03:17:55.310Z,2.53
2023-02-05T03:20:27.657Z,2.55
2023-02-05T03:22:56.218Z,2.50
2023-02-05T03:25:25.585Z,2.50
2023-02-05T03:27:54.365Z,2.30
2023-02-05T03:30:22.814Z,2.53
2023-02-05T03:33:16.276Z,2.67
2023-02-05T03:35:59.859Z,2.90
2023-02-05T03:39:12.138Z,2.60
2023-02-05T03:41:56.150Z,2.47
2023-02-05T03:44:38.617Z,2.50
2023-02-05T03:47:30.712Z,2.40
2023-02-05T03:50:13.452Z,2.58
2023-02-05T03:52:52.039Z,2.30
2023-02-05T03:55:24.053Z,2.33
2023-02-05T03:58:04.228Z,2.92
2023-02-05T04:00:32.845Z,2.97
2023-02-05T04:03:00.119Z,3.60
2023-02-05T04:05:27.351Z,6.25
2023-02-05T04:07:54.667Z,5.68
2023-02-05T04:10:22.290Z,14.30
2023-02-05T04:12:49.476Z,10.93
2023-02-05T04:15:16.816Z,7.65
2023-02-05T04:17:43.964Z,6.50
2023-02-05T04:20:11.682Z,5.57
2023-02-05T04:22:38.847Z,5.43
2023-02-05T04:25:06.360Z,7.50
2023-02-05T04:27:34.033Z,8.93
2023-02-05T04:30:01.214Z,7.63
2023-02-05T04:32:29.045Z,4.53
2023-02-05T04:34:56.297Z,4.43
2023-02-05T04:37:25.191Z,3.42
2023-02-05T04:39:52.506Z,2.78
2023-02-05T04:42:19.750Z,2.97
2023-02-05T04:44:47.014Z,3.17
2023-02-05T04:47:15.676Z,3.67
2023-02-05T04:49:42.834Z,3.30
2023-02-05T04:52:09.990Z,3.83
2023-02-05T04:54:39.936Z,3.50
2023-02-05T04:57:07.129Z,3.10
2023-02-05T04:59:34.391Z,3.53
2023-02-05T05:02:01.745Z,3.42
2023-02-05T05:04:28.949Z,4.10
2023-02-05T05:06:56.147Z,3.38
2023-02-05T05:09:24.460Z,4.10
2023-02-05T05:11:53.128Z,3.67
2023-02-05T05:14:20.466Z,3.35
2023-02-05T05:16:50.090Z,3.88
2023-02-05T05:19:17.648Z,3.60
2023-02-05T05:21:44.935Z,3.75
2023-02-05T05:24:12.130Z,4.03
2023-02-05T05:26:43.958Z,3.33
2023-02-05T05:29:14.872Z,3.50
2023-02-05T05:31:42.823Z,3.92
2023-02-05T05:34:10.087Z,3.92
2023-02-05T05:36:37.306Z,3.75
2023-02-05T05:39:22.917Z,3.53
2023-02-05T05:42:08.662Z,3.63
2023-02-05T05:44:35.871Z,3.88
2023-02-05T05:47:03.184Z,3.80
2023-02-05T05:49:30.324Z,3.80
2023-02-05T05:51:57.563Z,4.20
2023-02-05T05:54:24.726Z,3.70
2023-02-05T05:56:51.897Z,5.10
2023-02-05T05:59:19.082Z,9.60
2023-02-05T06:01:46.258Z,10.75
2023-02-05T06:04:13.508Z,9.82
2023-02-05T06:06:42.025Z,10.65
2023-02-05T06:09:09.334Z,11.55
2023-02-05T06:11:36.588Z,9.57
2023-02-05T06:14:03.762Z,6.53
2023-02-05T06:16:32.672Z,5.43
2023-02-05T06:19:00.499Z,6.50
2023-02-05T06:21:27.720Z,7.90
2023-02-05T06:23:54.906Z,5.93
2023-02-05T06:26:22.171Z,6.53
2023-02-05T06:28:49.385Z,5.07
2023-02-05T06:31:17.866Z,4.63
2023-02-05T06:33:45.173Z,5.18
2023-02-05T06:36:12.382Z,4.82
2023-02-05T06:38:39.539Z,5.07
2023-02-05T06:41:06.741Z,5.40
2023-02-05T06:43:33.954Z,4.82
2023-02-05T06:46:01.191Z,4.93
2023-02-05T06:48:28.398Z,4.05
2023-02-05T06:50:55.583Z,3.63
2023-02-05T06:53:22.857Z,3.97
2023-02-05T06:55:50.095Z,4.57
2023-02-05T06:58:17.265Z,4.57
2023-02-05T07:00:44.497Z,5.22
2023-02-05T07:03:11.719Z,5.10
2023-02-05T07:05:38.883Z,4.75
2023-02-05T07:08:07.057Z,5.18
2023-02-05T07:10:34.243Z,5.65
2023-02-05T07:13:01.583Z,5.95
2023-02-05T07:15:28.754Z,6.55
2023-02-05T07:17:56.090Z,7.00
2023-02-05T07:20:23.583Z,6.53
2023-02-05T07:22:50.790Z,6.93
2023-02-05T07:25:17.996Z,7.20
2023-02-05T07:27:45.261Z,6.88
2023-02-05T07:30:13.199Z,7.20
2023-02-05T07:32:40.378Z,9.43
2023-02-05T07:35:07.701Z,9.20
2023-02-05T07:37:37.622Z,9.27
2023-02-05T07:40:05.180Z,6.05
2023-02-05T07:42:32.383Z,5.15
2023-02-05T07:44:59.569Z,6.80
2023-02-05T07:47:26.735Z,6.45
2023-02-05T07:49:53.946Z,4.93
2023-02-05T07:52:21.197Z,5.10
2023-02-05T07:54:49.327Z,5.25
2023-02-05T07:57:16.542Z,5.00
2023-02-05T07:59:43.810Z,5.55
2023-02-05T08:02:12.615Z,5.22
2023-02-05T08:04:40.309Z,6.75
2023-02-05T08:07:07.496Z,6.22
2023-02-05T08:09:34.739Z,5.32
2023-02-05T08:12:01.941Z,4.93
2023-02-05T08:14:31.818Z,5.30
2023-02-05T08:16:59.626Z,7.13
2023-02-05T08:19:26.903Z,9.43
2023-02-05T08:21:54.198Z,6.10
2023-02-05T08:24:21.389Z,5.18
2023-02-05T08:26:48.669Z,8.02
2023-02-05T08:29:15.953Z,7.72
2023-02-05T08:31:43.297Z,6.40
2023-02-05T08:34:10.530Z,5.85
2023-02-05T08:36:37.694Z,5.78
2023-02-05T08:39:05.185Z,9.95
2023-02-05T08:41:32.324Z,6.43
2023-02-05T08:43:59.590Z,4.90
2023-02-05T08:46:31.629Z,3.92
2023-02-05T08:49:04.914Z,4.32
2023-02-05T08:51:33.578Z,4.47
2023-02-05T08:54:00.798Z,3.00
2023-02-05T08:56:28.051Z,2.47
2023-02-05T08:58:55.224Z,2.60
2023-02-05T09:01:22.402Z,4.07
2023-02-05T09:03:49.631Z,3.03
2023-02-05T09:06:16.973Z,3.30
2023-02-05T09:08:44.252Z,2.92
2023-02-05T09:11:13.908Z,3.10
2023-02-05T09:13:41.396Z,3.05
2023-02-05T09:16:11.442Z,3.15
2023-02-05T09:18:38.871Z,3.85
2023-02-05T09:21:10.235Z,4.35
2023-02-05T09:23:38.174Z,3.28
2023-02-05T09:26:05.892Z,3.22
2023-02-05T09:28:33.159Z,2.20
2023-02-05T09:31:08.874Z,2.67
2023-02-05T09:33:36.256Z,2.80
2023-02-05T09:36:14.665Z,2.42
2023-02-05T09:38:42.216Z,2.50
2023-02-05T09:41:15.152Z,2.60
2023-02-05T09:43:57.430Z,2.88
2023-02-05T09:47:02.958Z,2.80
2023-02-05T09:49:53.471Z,2.30
2023-02-05T09:52:27.861Z,2.20
2023-02-05T09:55:05.045Z,2.38
2023-02-05T09:57:39.042Z,2.40
2023-02-05T10:00:31.929Z,3.22
2023-02-05T10:03:22.306Z,2.50
2023-02-05T10:06:12.686Z,2.72
2023-02-05T10:08:52.947Z,2.03
2023-02-05T10:11:34.584Z,1.90
2023-02-05T10:14:33.543Z,2.45
2023-02-05T10:17:29.604Z,2.35
2023-02-05T10:20:16.978Z,2.65
2023-02-05T10:23:15.463Z,2.47
2023-02-05T10:25:47.829Z,2.28
2023-02-05T10:28:45.457Z,2.20
2023-02-05T10:31:42.442Z,2.03
2023-02-05T10:34:36.770Z,2.70
2023-02-05T10:39:35.126Z,2.20
2023-02-05T10:42:29.481Z,2.53
2023-02-05T10:45:25.199Z,2.60
2023-02-05T10:48:24.754Z,2.15
2023-02-05T10:51:00.202Z,2.55
2023-02-05T10:53:28.701Z,2.17
2023-02-05T10:55:58.301Z,2.45
2023-02-05T10:58:55.826Z,2.10
2023-02-05T11:01:29.458Z,2.05
2023-02-05T11:04:08.050Z,1.73
2023-02-05T11:06:53.884Z,2.33
2023-02-05T11:09:26.921Z,2.20
2023-02-05T11:11:58.394Z,1.98
2023-02-05T11:14:39.693Z,2.20
2023-02-05T11:17:25.019Z,2.08
2023-02-05T11:19:57.325Z,2.22
2023-02-05T11:22:27.748Z,2.40
2023-02-05T11:25:11.843Z,2.47
2023-02-05T11:27:39.758Z,2.58
2023-02-05T11:30:58.785Z,2.42
2023-02-05T11:33:33.566Z,2.72
2023-02-05T11:36:04.718Z,2.55
2023-02-05T11:38:39.846Z,2.53
2023-02-05T11:41:09.280Z,2.20
2023-02-05T11:43:51.631Z,2.08
2023-02-05T11:46:25.119Z,2.20
2023-02-05T11:48:58.475Z,2.35
2023-02-05T11:51:54.409Z,2.28
2023-02-05T11:54:32.347Z,3.05
2023-02-05T11:57:23.308Z,2.50
2023-02-05T12:00:02.192Z,2.67
2023-02-05T12:02:33.844Z,2.42
2023-02-05T12:05:09.963Z,2.83
2023-02-05T12:08:16.416Z,2.13
2023-02-05T12:11:22.072Z,1.90
2023-02-05T12:16:27.971Z,2.40
2023-02-05T12:19:11.543Z,1.98
2023-02-05T12:21:48.257Z,2.40
2023-02-05T12:24:24.215Z,2.00
2023-02-05T12:27:07.092Z,2.00
2023-02-05T12:30:06.230Z,2.10
2023-02-05T12:33:10.505Z,2.20
2023-02-05T12:36:00.753Z,2.15
2023-02-05T12:39:05.058Z,2.25
2023-02-05T12:41:53.428Z,2.00
2023-02-05T12:44:44.864Z,2.03
2023-02-05T12:47:23.640Z,1.90
2023-02-05T12:50:08.507Z,2.42
2023-02-05T12:52:41.697Z,3.90
2023-02-05T12:55:22.819Z,2.03
2023-02-05T12:57:57.792Z,2.22
2023-02-05T13:00:38.000Z,1.90
2023-02-05T13:03:23.119Z,2.03
2023-02-05T13:05:59.520Z,2.10
2023-02-05T13:08:49.287Z,2.15
2023-02-05T13:11:18.519Z,2.00
2023-02-05T13:14:03.077Z,2.30
2023-02-05T13:16:46.293Z,2.15
2023-02-05T13:19:41.164Z,2.60
2023-02-05T13:22:37.784Z,2.30
2023-02-05T13:25:38.134Z,2.28
2023-02-05T13:28:41.358Z,2.53
2023-02-05T13:31:25.263Z,2.10
2023-02-05T13:33:55.531Z,2.30
2023-02-05T13:36:27.567Z,2.15
2023-02-05T13:39:35.888Z,2.58
2023-02-05T13:42:44.987Z,2.30
2023-02-05T13:45:33.664Z,2.22
2023-02-05T13:48:15.729Z,2.50
2023-02-05T13:51:01.652Z,2.63
2023-02-05T13:54:09.059Z,2.35
2023-02-05T13:57:13.674Z,2.00
2023-02-05T13:59:54.507Z,2.00
2023-02-05T14:02:36.522Z,2.13
2023-02-05T14:05:05.129Z,2.15
2023-02-05T14:07:37.963Z,2.33
2023-02-05T14:10:06.515Z,2.20
2023-02-05T14:12:37.828Z,2.33
2023-02-05T14:15:20.809Z,2.45
2023-02-05T14:17:48.959Z,2.10
2023-02-05T14:20:26.236Z,2.88
2023-02-05T14:23:03.266Z,2.35
2023-02-05T14:25:38.337Z,2.10
2023-02-05T14:28:21.055Z,2.35
2023-02-05T14:30:55.438Z,2.20
2023-02-05T14:36:24.343Z,2.60
2023-02-05T14:38:53.981Z,1.70
2023-02-05T14:41:32.148Z,2.08
2023-02-05T14:44:25.351Z,1.90
2023-02-05T14:47:04.129Z,1.83
2023-02-05T14:49:41.444Z,1.98
2023-02-05T14:52:36.141Z,1.75
2023-02-05T14:55:16.461Z,1.90
2023-02-05T14:58:06.438Z,1.77
2023-02-05T15:00:45.039Z,1.80
2023-02-05T15:03:27.774Z,2.08
2023-02-05T15:06:08.179Z,1.70
2023-02-05T15:08:35.768Z,2.00
2023-02-05T15:11:26.265Z,1.92
2023-02-05T15:14:35.922Z,1.75
2023-02-05T15:17:06.549Z,1.90
2023-02-05T15:19:43.309Z,2.03
2023-02-05T15:22:41.795Z,2.00
2023-02-05T15:25:57.133Z,1.88
2023-02-05T15:28:32.843Z,2.10
2023-02-05T15:31:16.791Z,2.67
2023-02-05T15:34:10.152Z,2.40
2023-02-05T15:36:47.701Z,2.33
2023-02-05T15:39:57.919Z,1.77
2023-02-05T15:42:28.700Z,2.50
2023-02-05T15:44:56.623Z,2.08
2023-02-05T15:47:27.501Z,2.60
2023-02-05T15:50:01.484Z,2.30
2023-02-05T15:52:31.640Z,2.15
2023-02-05T15:55:04.847Z,2.17
2023-02-05T15:57:34.406Z,2.05
2023-02-05T16:00:04.733Z,2.15
2023-02-05T16:02:33.643Z,2.40
2023-02-05T16:05:24.082Z,2.30
2023-02-05T16:07:57.649Z,2.45
2023-02-05T16:10:36.026Z,5.20
2023-02-05T16:13:15.434Z,4.97
2023-02-05T16:16:09.034Z,3.70
2023-02-05T16:18:54.049Z,3.15
2023-02-05T16:24:04.419Z,2.50
2023-02-05T16:26:41.099Z,3.00
2023-02-05T16:29:25.624Z,2.83
2023-02-05T16:32:01.038Z,2.90
2023-02-05T16:34:30.080Z,3.17
2023-02-05T16:37:03.380Z,3.15
2023-02-05T16:39:44.093Z,3.42
2023-02-05T16:42:39.297Z,5.13
2023-02-05T16:48:27.051Z,4.72
2023-02-05T16:50:58.219Z,5.07
2023-02-05T16:53:32.029Z,4.60
2023-02-05T16:56:14.000Z,4.05
2023-02-05T16:58:47.592Z,5.35
2023-02-05T17:01:25.467Z,8.57
2023-02-05T17:03:53.763Z,13.77
2023-02-05T17:06:22.891Z,14.00
2023-02-05T17:08:58.881Z,14.25
2023-02-05T17:11:44.383Z,14.20
2023-02-05T17:14:23.961Z,11.50
2023-02-05T17:16:55.927Z,10.88
2023-02-05T17:19:27.848Z,11.10
2023-02-05T17:22:14.480Z,11.50
2023-02-05T17:24:49.746Z,9.07
2023-02-05T17:27:31.161Z,8.55
2023-02-05T17:30:00.495Z,7.35
2023-02-05T17:32:34.136Z,6.72
2023-02-05T17:35:02.567Z,6.30
2023-02-05T17:37:34.051Z,7.15
2023-02-05T17:40:02.180Z,9.57
2023-02-05T17:42:32.099Z,7.40
2023-02-05T17:44:59.956Z,6.72
2023-02-05T17:47:29.365Z,6.45
2023-02-05T17:50:02.067Z,6.70
2023-02-05T17:52:32.538Z,11.32
2023-02-05T17:55:01.325Z,12.10
2023-02-05T17:57:29.536Z,13.25
2023-02-05T17:59:57.813Z,9.52
2023-02-05T18:02:26.252Z,7.20
2023-02-05T18:04:55.584Z,6.75
2023-02-05T18:07:52.418Z,8.02
2023-02-05T18:10:30.113Z,7.47
2023-02-05T18:12:59.009Z,7.47
2023-02-05T18:15:28.054Z,7.78
2023-02-05T18:17:57.714Z,7.30
2023-02-05T18:20:25.446Z,7.90
2023-02-05T18:22:53.518Z,7.57
2023-02-05T18:25:21.758Z,6.68
2023-02-05T18:27:50.961Z,5.72
2023-02-05T18:30:19.216Z,6.15
2023-02-05T18:32:47.442Z,7.05
2023-02-05T18:35:15.330Z,9.98
2023-02-05T18:37:45.348Z,9.13
2023-02-05T18:40:15.787Z,7.28
2023-02-05T18:42:47.547Z,7.45
2023-02-05T18:45:18.141Z,6.78
2023-02-05T18:47:46.132Z,7.68
2023-02-05T18:50:14.251Z,8.05
2023-02-05T18:52:41.820Z,9.10
2023-02-05T18:55:09.925Z,7.40
2023-02-05T18:57:39.828Z,7.10
2023-02-05T19:00:08.554Z,8.20
2023-02-05T19:02:38.027Z,6.95
2023-02-05T19:05:05.816Z,7.93
2023-02-05T19:07:34.737Z,7.75
2023-02-05T19:10:03.143Z,10.35
2023-02-05T19:12:32.154Z,9.57
2023-02-05T19:15:00.379Z,9.77
2023-02-05T19:17:29.301Z,8.43
2023-02-05T19:19:59.276Z,8.23
2023-02-05T19:22:27.761Z,7.15
2023-02-05T19:24:56.056Z,6.88
2023-02-05T19:27:25.319Z,7.07
2023-02-05T19:29:54.628Z,6.88
2023-02-05T19:32:25.617Z,7.47
2023-02-05T19:34:56.522Z,6.50
2023-02-05T19:37:24.658Z,5.95
2023-02-05T19:39:52.749Z,6.95
2023-02-05T19:42:20.873Z,7.55
2023-02-05T19:44:49.720Z,7.75
2023-02-05T19:47:18.462Z,7.85
2023-02-05T19:49:46.492Z,8.70
2023-02-05T19:52:14.450Z,7.10
2023-02-05T19:54:42.045Z,7.85
2023-02-05T19:57:09.634Z,7.88
2023-02-05T19:59:39.857Z,7.10
2023-02-05T20:02:13.007Z,6.32
2023-02-05T20:04:42.649Z,7.32
2023-02-05T20:07:10.814Z,10.02
2023-02-05T20:09:39.100Z,10.57
2023-02-05T20:12:06.981Z,8.90
2023-02-05T20:14:35.977Z,14.88
2023-02-05T20:17:04.006Z,12.45
2023-02-05T20:19:31.694Z,7.35
2023-02-05T20:21:59.205Z,7.85
2023-02-05T20:24:27.267Z,6.65
2023-02-05T20:26:57.141Z,6.80
2023-02-05T20:29:43.410Z,6.45
2023-02-05T20:32:11.785Z,6.13
2023-02-05T20:34:46.455Z,8.40
2023-02-05T20:37:14.811Z,7.45
2023-02-05T20:39:44.649Z,7.93
2023-02-05T20:42:15.770Z,6.60
2023-02-05T20:44:46.084Z,6.57
2023-02-05T20:47:16.297Z,6.60
2023-02-05T20:49:44.804Z,6.47
2023-02-05T20:52:12.892Z,6.50
2023-02-05T20:54:43.779Z,9.55
2023-02-05T20:57:11.789Z,8.07
2023-02-05T20:59:39.699Z,7.57
2023-02-05T21:02:08.613Z,7.53
2023-02-05T21:04:38.191Z,7.88
2023-02-05T21:07:05.941Z,8.15
2023-02-05T21:09:34.079Z,6.90
2023-02-05T21:12:02.183Z,6.68
2023-02-05T21:14:29.709Z,6.82
2023-02-05T21:16:57.415Z,7.55
2023-02-05T21:19:24.987Z,6.78
2023-02-05T21:21:52.519Z,8.05
2023-02-05T21:24:20.883Z,9.63
2023-02-05T21:26:50.157Z,9.43
2023-02-05T21:29:23.428Z,8.60
2023-02-05T21:31:54.114Z,7.22
2023-02-05T21:34:24.356Z,7.80
2023-02-05T21:36:53.099Z,8.85
2023-02-05T21:39:20.603Z,8.23
2023-02-05T21:41:50.899Z,13.00
2023-02-05T21:44:18.475Z,10.45
2023-02-05T21:46:45.953Z,10.63
2023-02-05T21:49:13.170Z,7.88
2023-02-05T21:51:42.625Z,8.80
2023-02-05T21:54:11.368Z,8.35
2023-02-05T21:56:41.466Z,8.48
2023-02-05T21:59:09.729Z,8.20
2023-02-05T22:01:38.107Z,8.55
2023-02-05T22:04:09.411Z,8.07
2023-02-05T22:06:37.082Z,6.10
2023-02-05T22:09:08.004Z,6.85
2023-02-05T22:11:35.838Z,6.63
2023-02-05T22:14:03.067Z,6.20
2023-02-05T22:16:32.744Z,6.93
2023-02-05T22:19:01.101Z,6.40
2023-02-05T22:21:32.689Z,7.22
2023-02-05T22:24:01.874Z,7.95
2023-02-05T22:26:34.410Z,7.45
2023-02-05T22:29:03.098Z,8.48
2023-02-05T22:31:31.212Z,8.70
2023-02-05T22:34:00.105Z,9.70
2023-02-05T22:36:30.069Z,9.32
2023-02-05T22:38:57.662Z,9.05
2023-02-05T22:41:32.129Z,11.77
2023-02-05T22:46:30.466Z,16.05
2023-02-05T22:48:59.775Z,15.43
2023-02-05T22:51:33.065Z,14.27
2023-02-05T22:54:00.653Z,9.07
2023-02-05T22:56:28.658Z,9.43
2023-02-05T22:58:56.520Z,16.45
2023-02-05T23:01:26.723Z,7.30
2023-02-05T23:03:55.023Z,6.43
2023-02-05T23:06:28.087Z,5.63
2023-02-05T23:09:05.826Z,5.70
2023-02-05T23:11:34.292Z,5.78
2023-02-05T23:14:03.710Z,5.10
2023-02-05T23:16:34.740Z,5.03
2023-02-05T23:19:06.910Z,5.82
2023-02-05T23:21:35.510Z,5.82
2023-02-05T23:24:03.478Z,5.07
2023-02-05T23:26:38.696Z,5.95
2023-02-05T23:29:06.587Z,5.35
2023-02-05T23:31:33.873Z,4.90
2023-02-05T23:34:01.213Z,5.00
2023-02-05T23:36:28.462Z,4.55
2023-02-05T23:38:55.685Z,3.85
2023-02-05T23:41:37.970Z,4.50
2023-02-05T23:44:18.873Z,4.50
2023-02-05T23:46:47.976Z,4.55
2023-02-05T23:49:16.994Z,4.03
2023-02-05T23:51:44.230Z,4.60
2023-02-05T23:54:12.004Z,4.55
2023-02-05T23:56:39.464Z,4.38
2023-02-05T23:59:08.267Z,5.18
